Terminal Aerodrome Forecast
Issued by NWS Jackson, MS

Home | Current Version | Previous Version | Text Only | Print | Product List | Glossary On
Versions: 1 2 3 4 5 6 7 8 9 10 11 12 13
000
FTUS44 KJAN 181700
TAFHBG
TAF
KHBG 181720Z 1818/1918 13009KT P6SM OVC110
     FM191200 05004KT P6SM VCSH OVC050
     FM191500 05004KT 6SM -RA OVC025=

USA.gov is the U.S. government's official web portal to all federal, state and local government web resources and services.